Time;durP1;ratioP1;P1;durP2;ratioP2;P2;SDS_P1;SDS_P2;PMS_P1;PMS_P2;Temp;Humidity;BMP_temperature;BMP_pressure;BME280_temperature;BME280_humidity;BME280_pressure;Samples;Min_cycle;Max_cycle;Signal;HPM_P1;HPM_P2
2021/05/23 00:00:50;;;;;;;3.10;1.27;;;13.10;99.90;;;;;;5090853;28;20660;-73
2021/05/23 00:03:18;;;;;;;1.87;1.53;;;13.10;99.90;;;;;;5091684;28;20523;-72
2021/05/23 00:05:47;;;;;;;6.30;1.50;;;13.10;99.90;;;;;;5090508;28;20578;-73
2021/05/23 00:08:15;;;;;;;3.33;1.50;;;12.80;1.00;;;;;;5091685;28;20455;-73
2021/05/23 00:10:45;;;;;;;1.93;1.47;;;12.60;99.90;;;;;;5090743;28;20445;-73
2021/05/23 00:13:13;;;;;;;3.97;1.40;;;12.60;99.90;;;;;;5093882;28;20955;-73
2021/05/23 00:15:44;;;;;;;2.23;1.23;;;12.80;99.90;;;;;;5095275;28;20490;-73
2021/05/23 00:18:12;;;;;;;2.27;1.17;;;12.80;99.90;;;;;;5095648;28;20811;-73
2021/05/23 00:20:40;;;;;;;1.80;1.17;;;12.70;34.40;;;;;;5094997;28;20563;-73
2021/05/23 00:23:08;;;;;;;3.33;1.40;;;12.90;1.00;;;;;;5095554;28;20452;-72
2021/05/23 00:25:35;;;;;;;1.73;1.50;;;12.60;74.20;;;;;;5094825;28;20445;-73
2021/05/23 00:28:01;;;;;;;4.37;1.13;;;12.60;99.90;;;;;;5095631;28;20467;-73
2021/05/23 00:30:28;;;;;;;1.40;1.00;;;12.50;99.90;;;;;;5095268;28;20444;-73
2021/05/23 00:32:55;;;;;;;5.27;2.20;;;12.50;99.90;;;;;;5095324;28;20448;-73
2021/05/23 00:35:21;;;;;;;3.53;1.50;;;12.50;99.90;;;;;;5095198;28;20531;-72
2021/05/23 00:37:49;;;;;;;2.80;1.00;;;12.60;99.90;;;;;;5094467;28;20936;-73
2021/05/23 00:40:16;;;;;;;1.00;0.90;;;12.80;59.20;;;;;;5095288;28;20444;-73
2021/05/23 00:42:42;;;;;;;1.33;1.10;;;12.80;1.00;;;;;;5094304;28;21006;-73
2021/05/23 00:45:13;;;;;;;1.97;0.80;;;12.90;1.00;;;;;;5095167;28;20441;-73
2021/05/23 00:47:40;;;;;;;2.90;1.10;;;13.00;1.00;;;;;;5094277;28;20948;-73
2021/05/23 00:50:07;;;;;;;1.63;0.93;;;12.90;1.00;;;;;;5094976;28;20472;-73
2021/05/23 00:52:33;;;;;;;1.37;1.03;;;12.90;1.00;;;;;;5094322;28;20451;-73
2021/05/23 00:55:01;;;;;;;1.90;0.90;;;12.80;1.00;;;;;;5095045;28;20532;-73
2021/05/23 00:57:29;;;;;;;4.00;1.33;;;12.90;1.00;;;;;;5094681;28;20523;-74
2021/05/23 00:59:56;;;;;;;1.60;1.13;;;13.00;1.00;;;;;;5094842;28;20452;-73
2021/05/23 01:02:44;;;;;;;1.30;1.10;;;12.90;99.90;;;;;;5094747;28;20986;-73
2021/05/23 01:05:13;;;;;;;1.57;0.90;;;13.10;99.90;;;;;;5094930;28;20978;-73
2021/05/23 01:07:41;;;;;;;2.40;1.13;;;13.10;99.90;;;;;;5094360;28;20523;-73
2021/05/23 01:10:12;;;;;;;1.77;0.80;;;13.10;99.90;;;;;;5094687;28;20510;-73
2021/05/23 01:13:32;;;;;;;1.20;0.93;;;13.00;99.90;;;;;;5093812;28;20523;-73
2021/05/23 01:15:59;;;;;;;3.23;0.90;;;;;;;;;;5094540;28;20428;-73
2021/05/23 01:18:29;;;;;;;0.97;0.87;;;;;;;;;;5094538;28;20535;-74
2021/05/23 01:20:56;;;;;;;1.10;0.90;;;;;;;;;;5093361;28;20555;-73
2021/05/23 01:23:24;;;;;;;0.80;0.80;;;;;;;;;;5093572;28;20444;-73
2021/05/23 01:25:55;;;;;;;1.27;0.90;;;;;;;;;;5093448;28;20468;-73
2021/05/23 01:28:21;;;;;;;1.10;1.00;;;;;;;;;;5094368;28;20440;-74
2021/05/23 01:30:49;;;;;;;0.73;0.70;;;;;;;;;;5093592;28;20528;-72
2021/05/23 01:33:16;;;;;;;1.07;0.90;;;;;;;;;;5094073;28;20443;-73
2021/05/23 01:35:46;;;;;;;1.47;0.60;;;;;;;;;;5093227;28;20933;-74
2021/05/23 01:38:14;;;;;;;2.00;0.80;;;;;;;;;;5093746;28;20971;-73
2021/05/23 01:40:41;;;;;;;1.47;0.90;;;;;;;;;;5092990;28;20479;-72
2021/05/23 01:43:09;;;;;;;2.10;1.17;;;;;;;;;;5094209;28;20447;-74
2021/05/23 01:45:36;;;;;;;1.87;0.93;;;;;;;;;;5093240;28;20540;-73
2021/05/23 01:48:04;;;;;;;1.00;0.90;;;;;;;;;;5093745;28;20539;-73
2021/05/23 01:50:31;;;;;;;3.07;1.30;;;;;;;;;;5093521;28;20991;-73
2021/05/23 01:52:59;;;;;;;1.03;0.90;;;;;;;;;;5092942;28;20518;-73
2021/05/23 01:55:26;;;;;;;0.90;0.80;;;;;;;;;;5093478;28;20425;-73
2021/05/23 01:57:53;;;;;;;1.30;0.70;;;;;;;;;;5093081;28;20573;-74
2021/05/23 02:00:22;;;;;;;0.80;0.77;;;;;;;;;;5093245;28;20470;-73
2021/05/23 02:02:49;;;;;;;1.20;0.80;;;;;;;;;;5092652;28;20483;-73
2021/05/23 02:05:15;;;;;;;1.97;0.73;;;;;;;;;;5093399;28;20441;-74
2021/05/23 02:07:42;;;;;;;1.00;0.70;;;;;;;;;;5092817;28;20804;-72
2021/05/23 02:10:10;;;;;;;1.40;0.80;;;;;;;;;;5093462;28;20519;-74
2021/05/23 02:12:37;;;;;;;1.20;0.90;;;;;;;;;;5092858;28;20653;-73
2021/05/23 02:15:05;;;;;;;2.10;0.83;;;;;;;;;;5093298;28;20540;-74
2021/05/23 02:17:36;;;;;;;1.00;0.90;;;;;;;;;;5093014;28;20524;-72
2021/05/23 02:20:03;;;;;;;2.30;0.90;;;;;;;;;;5093237;28;20508;-74
2021/05/23 02:22:29;;;;;;;0.97;0.60;;;;;;;;;;5092697;28;20578;-73
2021/05/23 02:24:56;;;;;;;1.77;0.80;;;;;;;;;;5092882;28;20523;-74
2021/05/23 02:27:23;;;;;;;2.33;0.73;;;;;;;;;;5092889;28;20762;-75
2021/05/23 02:29:49;;;;;;;1.10;0.90;;;;;;;;;;5092418;28;20455;-73
2021/05/23 02:32:16;;;;;;;0.70;0.60;;;;;;;;;;5092742;28;20536;-74
2021/05/23 02:34:47;;;;;;;2.10;1.53;;;;;;;;;;5092026;28;20544;-73
2021/05/23 02:37:14;;;;;;;1.00;0.60;;;;;;;;;;5091999;28;20448;-74
2021/05/23 02:39:41;;;;;;;1.00;0.60;;;;;;;;;;5092328;28;20447;-74
2021/05/23 02:42:07;;;;;;;1.33;0.90;;;;;;;;;;5092888;28;20533;-74
2021/05/23 02:44:34;;;;;;;0.87;0.70;;;;;;;;;;5092774;28;20451;-74
2021/05/23 02:47:02;;;;;;;0.83;0.70;;;;;;;;;;5092176;28;20613;-74
2021/05/23 02:49:28;;;;;;;1.00;0.90;;;;;;;;;;5092734;28;20799;-73
2021/05/23 02:51:56;;;;;;;3.10;1.50;;;;;;;;;;5091886;28;20449;-73
2021/05/23 02:54:22;;;;;;;0.70;0.63;;;;;;;;;;5092817;28;20529;-74
2021/05/23 02:56:49;;;;;;;2.73;0.77;;;;;;;;;;5091942;28;20525;-73
2021/05/23 02:59:16;;;;;;;1.93;0.80;;;;;;;;;;5092498;28;20479;-73
2021/05/23 03:01:42;;;;;;;1.13;0.77;;;;;;;;;;5091451;28;20563;-73
2021/05/23 03:04:09;;;;;;;1.40;0.60;;;;;;;;;;5092156;28;20505;-73
2021/05/23 03:06:36;;;;;;;0.83;0.67;;;;;;;;;;5091988;28;20472;-72
2021/05/23 03:09:04;;;;;;;0.70;0.60;;;;;;;;;;5091712;28;20447;-72
2021/05/23 03:11:30;;;;;;;3.00;0.87;;;;;;;;;;5091944;28;20452;-72
2021/05/23 03:13:57;;;;;;;3.33;0.90;;;;;;;;;;5091667;28;20457;-74
2021/05/23 03:16:24;;;;;;;1.87;0.60;;;;;;;;;;5092167;28;20440;-74
2021/05/23 03:18:51;;;;;;;0.73;0.50;;;;;;;;;;5091359;28;20959;-73
2021/05/23 03:21:17;;;;;;;0.57;0.47;;;;;;;;;;5092110;28;20480;-73
2021/05/23 03:23:44;;;;;;;0.80;0.67;;;;;;;;;;5091139;28;20460;-73
2021/05/23 03:26:11;;;;;;;0.60;0.50;;;;;;;;;;5092107;28;20452;-74
2021/05/23 03:28:38;;;;;;;0.70;0.60;;;;;;;;;;5092176;28;20449;-74
2021/05/23 03:31:05;;;;;;;1.07;0.60;;;;;;;;;;5091781;28;20437;-74
2021/05/23 03:33:31;;;;;;;0.60;0.50;;;;;;;;;;5091826;28;20879;-74
2021/05/23 03:35:58;;;;;;;1.10;0.70;;;;;;;;;;5091129;28;20531;-73
2021/05/23 03:38:25;;;;;;;0.90;0.60;;;;;;;;;;5091554;28;21036;-74
2021/05/23 03:40:51;;;;;;;0.60;0.53;;;;;;;;;;5091212;28;20538;-72
2021/05/23 03:43:19;;;;;;;3.13;1.00;;;;;;;;;;5092002;28;20548;-74
2021/05/23 03:45:46;;;;;;;2.10;1.00;;;;;;;;;;5090905;28;20472;-74
2021/05/23 03:48:12;;;;;;;0.77;0.50;;;;;;;;;;5091148;28;20448;-74
2021/05/23 03:50:39;;;;;;;0.70;0.60;;;;;;;;;;5091752;28;20544;-75
2021/05/23 03:53:06;;;;;;;0.70;0.50;;;;;;;;;;5091468;28;21045;-75
2021/05/23 03:55:34;;;;;;;0.73;0.73;;;;;;;;;;5091680;28;20464;-74
2021/05/23 03:58:00;;;;;;;1.00;0.70;;;;;;;;;;5090764;28;20445;-74
2021/05/23 04:00:28;;;;;;;0.60;0.50;;;;;;;;;;5091421;28;20448;-74
2021/05/23 04:02:56;;;;;;;0.60;0.47;;;;;;;;;;5090787;28;20567;-74
2021/05/23 04:05:23;;;;;;;0.70;0.50;;;;;;;;;;5091399;28;20437;-75
2021/05/23 04:07:50;;;;;;;2.03;0.50;;;;;;;;;;5090857;28;20496;-74
2021/05/23 04:10:20;;;;;;;0.90;0.57;;;;;;;;;;5091393;28;20942;-74
2021/05/23 04:12:49;;;;;;;0.80;0.63;;;;;;;;;;5090777;28;20456;-74
2021/05/23 04:15:17;;;;;;;0.70;0.60;;;;;;;;;;5091174;28;20502;-74
2021/05/23 04:17:45;;;;;;;1.60;0.80;;;;;;;;;;5090562;28;20776;-75
2021/05/23 04:20:13;;;;;;;1.00;0.60;;;;;;;;;;5091487;28;20440;-75
2021/05/23 04:22:40;;;;;;;0.83;0.60;;;;;;;;;;5091479;28;20515;-75
2021/05/23 04:25:09;;;;;;;0.70;0.60;;;;;;;;;;5090607;28;20936;-76
2021/05/23 04:27:36;;;;;;;1.17;0.70;;;;;;;;;;5091379;28;20440;-74
2021/05/23 04:30:03;;;;;;;0.80;0.70;;;;;;;;;;5090536;28;20944;-74
2021/05/23 04:32:29;;;;;;;0.90;0.60;;;;;;;;;;5091291;28;20589;-75
2021/05/23 04:34:56;;;;;;;2.37;1.20;;;13.00;99.90;;;;;;5090411;28;20443;-75
2021/05/23 04:37:23;;;;;;;1.93;0.90;;;10.70;99.90;;;;;;5091263;28;20437;-75
2021/05/23 04:39:49;;;;;;;0.90;0.60;;;10.50;99.90;;;;;;5090736;28;20947;-76
2021/05/23 04:42:16;;;;;;;1.10;0.60;;;10.50;99.90;;;;;;5091103;28;20563;-74
2021/05/23 04:44:42;;;;;;;0.67;0.60;;;10.40;99.90;;;;;;5091472;28;20841;-75
2021/05/23 04:47:09;;;;;;;1.00;0.87;;;10.40;99.90;;;;;;5091320;28;20509;-75
2021/05/23 04:49:39;;;;;;;1.60;1.10;;;10.60;99.90;;;;;;5090713;28;20539;-75
2021/05/23 04:52:07;;;;;;;0.93;0.83;;;10.50;99.90;;;;;;5090185;28;20456;-75
2021/05/23 04:54:33;;;;;;;1.63;0.90;;;10.50;99.90;;;;;;5090676;28;20475;-75
2021/05/23 04:57:00;;;;;;;1.53;0.80;;;10.50;99.90;;;;;;5090203;28;20447;-75
2021/05/23 04:59:26;;;;;;;0.70;0.60;;;10.60;99.90;;;;;;5092021;28;20652;-75
2021/05/23 05:01:53;;;;;;;1.03;0.67;;;10.70;99.90;;;;;;5093755;28;20514;-76
2021/05/23 05:04:19;;;;;;;1.00;0.60;;;10.60;99.90;;;;;;5094712;28;20531;-76
2021/05/23 05:06:46;;;;;;;0.90;0.70;;;10.60;99.90;;;;;;5094045;28;20852;-74
2021/05/23 05:09:13;;;;;;;1.30;1.17;;;10.80;99.90;;;;;;5094344;28;20948;-74
2021/05/23 05:11:40;;;;;;;2.10;0.80;;;10.70;99.90;;;;;;5094450;28;20451;-74
2021/05/23 05:14:08;;;;;;;1.33;0.60;;;10.90;99.90;;;;;;5093629;28;20480;-75
2021/05/23 05:16:35;;;;;;;1.30;1.13;;;10.80;99.90;;;;;;5094508;28;20484;-75
2021/05/23 05:19:01;;;;;;;1.03;0.77;;;;;;;;;;5093658;28;20436;-76
2021/05/23 05:21:28;;;;;;;1.93;1.53;;;;;;;;;;5094099;28;20515;-76
2021/05/23 05:23:55;;;;;;;1.70;1.00;;;;;;;;;;5093854;28;20915;-75
2021/05/23 05:26:22;;;;;;;2.20;1.23;;;;;;;;;;5093984;28;20445;-76
2021/05/23 05:28:49;;;;;;;1.00;0.80;;;;;;;;;;5093745;28;20443;-76
2021/05/23 05:31:15;;;;;;;1.50;1.40;;;10.80;99.90;;;;;;5094136;28;20505;-75
2021/05/23 05:33:42;;;;;;;1.67;1.00;;;11.30;99.90;;;;;;5093873;28;20917;-76
2021/05/23 05:36:08;;;;;;;3.93;1.33;;;11.30;99.90;;;;;;5093506;28;20527;-75
2021/05/23 05:38:35;;;;;;;1.60;1.00;;;11.30;99.90;;;;;;5094096;28;20559;-75
2021/05/23 05:41:02;;;;;;;2.63;1.00;;;11.30;99.90;;;;;;5093372;28;20444;-75
2021/05/23 05:43:29;;;;;;;1.30;0.83;;;11.30;99.90;;;;;;5093609;28;20518;-74
2021/05/23 05:45:55;;;;;;;2.37;0.67;;;11.30;99.90;;;;;;5093370;28;20437;-74
2021/05/23 05:48:22;;;;;;;1.33;0.70;;;11.30;99.90;;;;;;5094060;28;20543;-75
2021/05/23 05:50:49;;;;;;;2.10;0.90;;;11.40;99.90;;;;;;5093118;28;20440;-74
2021/05/23 05:53:15;;;;;;;2.33;1.00;;;11.40;99.90;;;;;;5093617;28;20480;-75
2021/05/23 05:55:41;;;;;;;3.90;0.90;;;11.50;99.90;;;;;;5093570;28;20527;-73
2021/05/23 05:58:08;;;;;;;1.00;0.77;;;11.50;99.90;;;;;;5093439;28;21183;-75
2021/05/23 06:00:35;;;;;;;0.90;0.60;;;11.70;99.90;;;;;;5093668;28;20447;-76
2021/05/23 06:03:02;;;;;;;0.63;0.63;;;11.70;99.90;;;;;;5093015;28;21078;-74
2021/05/23 06:05:29;;;;;;;2.07;1.10;;;11.80;99.90;;;;;;5093596;28;20455;-75
2021/05/23 06:07:55;;;;;;;0.70;0.70;;;11.80;99.90;;;;;;5092918;28;20440;-75
2021/05/23 06:10:23;;;;;;;1.37;0.87;;;11.80;99.90;;;;;;5093313;28;20581;-75
2021/05/23 06:12:49;;;;;;;1.73;0.90;;;11.80;99.90;;;;;;5092774;28;20452;-73
2021/05/23 06:15:16;;;;;;;1.50;0.80;;;11.90;99.90;;;;;;5093308;28;20449;-75
2021/05/23 06:17:43;;;;;;;1.60;0.83;;;11.80;99.90;;;;;;5093106;28;20523;-75
2021/05/23 06:20:10;;;;;;;2.60;1.77;;;;;;;;;;5092690;28;20509;-75
2021/05/23 06:22:37;;;;;;;3.10;0.80;;;;;;;;;;5093252;28;20548;-75
2021/05/23 06:25:05;;;;;;;0.80;0.50;;;;;;;;;;5092387;28;20468;-75
2021/05/23 06:27:31;;;;;;;1.67;0.80;;;;;;;;;;5093035;28;20527;-74
2021/05/23 06:29:58;;;;;;;2.77;0.70;;;;;;;;;;5092379;28;20451;-75
2021/05/23 06:32:25;;;;;;;0.73;0.60;;;;;;;;;;5092935;28;20496;-76
2021/05/23 06:34:52;;;;;;;1.97;0.80;;;;;;;;;;5092169;28;20449;-74
2021/05/23 06:37:19;;;;;;;0.60;0.50;;;;;;;;;;5092355;28;20441;-75
2021/05/23 06:39:45;;;;;;;1.70;0.80;;;;;;;;;;5092442;28;20444;-76
2021/05/23 06:42:12;;;;;;;0.90;0.60;;;;;;;;;;5091922;28;20571;-75
2021/05/23 06:44:39;;;;;;;1.93;0.70;;;;;;;;;;5092429;28;20476;-75
2021/05/23 06:47:05;;;;;;;1.93;0.80;;;;;;;;;;5092138;28;20435;-75
2021/05/23 06:49:32;;;;;;;1.10;0.70;;;;;;;;;;5092567;28;21028;-75
2021/05/23 06:52:00;;;;;;;5.43;1.00;;;;;;;;;;5091727;28;20449;-75
2021/05/23 06:54:27;;;;;;;1.23;0.70;;;;;;;;;;5092580;28;20472;-75
2021/05/23 06:56:53;;;;;;;3.10;0.93;;;;;;;;;;5092088;28;20472;-75
2021/05/23 06:59:20;;;;;;;1.83;0.87;;;;;;;;;;5092392;28;20523;-75
2021/05/23 07:01:47;;;;;;;0.93;0.60;;;;;;;;;;5092505;28;20476;-76
2021/05/23 07:04:14;;;;;;;1.80;0.70;;;;;;;;;;5091900;28;20436;-75
2021/05/23 07:06:40;;;;;;;2.13;0.70;;;;;;;;;;5092319;28;20523;-75
2021/05/23 07:09:08;;;;;;;1.90;0.70;;;;;;;;;;5091388;28;20536;-75
2021/05/23 07:11:35;;;;;;;1.80;0.70;;;;;;;;;;5092380;28;20601;-73
2021/05/23 07:14:01;;;;;;;0.60;0.50;;;;;;;;;;5091628;28;20535;-74
2021/05/23 07:16:28;;;;;;;1.00;1.00;;;;;;;;;;5092211;28;20795;-75
2021/05/23 07:18:55;;;;;;;0.70;0.67;;;;;;;;;;5091500;28;20535;-75
2021/05/23 07:21:21;;;;;;;1.20;0.80;;;;;;;;;;5091763;28;20436;-75
2021/05/23 07:23:48;;;;;;;1.57;0.80;;;;;;;;;;5091949;28;20540;-74
2021/05/23 07:26:15;;;;;;;0.90;0.67;;;;;;;;;;5091145;28;20444;-74
2021/05/23 07:28:42;;;;;;;1.43;0.63;;;;;;;;;;5091946;28;20527;-75
2021/05/23 07:31:09;;;;;;;0.60;0.50;;;;;;;;;;5091061;28;20582;-73
2021/05/23 07:33:35;;;;;;;1.27;0.70;;;;;;;;;;5091899;28;20480;-74
2021/05/23 07:36:05;;;;;;;0.73;0.70;;;;;;;;;;5090957;28;20527;-73
2021/05/23 07:38:32;;;;;;;1.70;0.67;;;;;;;;;;5091979;28;20461;-74
2021/05/23 07:40:58;;;;;;;3.40;0.60;;;;;;;;;;5091420;28;20457;-74
2021/05/23 07:43:26;;;;;;;1.30;0.70;;;;;;;;;;5091389;28;21130;-75
2021/05/23 07:45:53;;;;;;;2.07;1.00;;;;;;;;;;5091769;28;20468;-74
2021/05/23 07:48:20;;;;;;;1.10;0.80;;;11.90;99.90;;;;;;5091626;28;20460;-67
2021/05/23 07:50:47;;;;;;;0.70;0.53;;;;;;;;;;5091261;28;20467;-67
2021/05/23 07:53:14;;;;;;;1.43;0.50;;;9.70;99.90;;;;;;5090780;28;20480;-67
2021/05/23 07:55:41;;;;;;;2.97;0.70;;;8.30;99.90;;;;;;5091263;28;20435;-67
2021/05/23 07:58:07;;;;;;;0.90;0.77;;;8.20;99.90;;;;;;5090894;28;20523;-66
2021/05/23 08:00:34;;;;;;;0.90;0.60;;;8.40;99.90;;;;;;5090832;28;20535;-67
2021/05/23 08:03:01;;;;;;;1.20;0.67;;;8.50;99.90;;;;;;5090191;28;20478;-66
2021/05/23 08:05:28;;;;;;;1.27;0.93;;;8.60;99.90;;;;;;5091824;28;20472;-67
2021/05/23 08:07:55;;;;;;;1.17;0.80;;;8.80;99.90;;;;;;5091471;28;20451;-66
2021/05/23 08:10:22;;;;;;;1.20;1.10;;;9.10;99.90;;;;;;5091444;28;20468;-67
2021/05/23 08:12:48;;;;;;;3.03;0.90;;;9.10;99.90;;;;;;5091490;28;20451;-67
2021/05/23 08:15:15;;;;;;;2.27;1.00;;;9.30;99.90;;;;;;5090797;28;20440;-66
2021/05/23 08:17:45;;;;;;;1.00;0.60;;;10.60;99.90;;;;;;5091242;28;20523;-67
2021/05/23 08:20:13;;;;;;;2.30;1.00;;;10.30;99.90;;;;;;5090697;28;20949;-66
2021/05/23 08:22:39;;;;;;;1.07;0.80;;;10.20;99.90;;;;;;5091182;28;20574;-66
2021/05/23 08:25:07;;;;;;;1.00;0.70;;;10.10;99.90;;;;;;5090288;28;20440;-66
2021/05/23 08:27:34;;;;;;;2.07;1.20;;;10.20;99.90;;;;;;5091019;28;20447;-69
2021/05/23 08:30:00;;;;;;;1.77;0.80;;;10.50;99.90;;;;;;5090611;28;20531;-68
2021/05/23 08:32:27;;;;;;;1.37;0.87;;;10.50;99.90;;;;;;5091184;28;20478;-66
2021/05/23 08:34:54;;;;;;;2.03;0.90;;;10.70;99.90;;;;;;5094783;28;20535;-66
2021/05/23 08:37:20;;;;;;;3.23;0.97;;;11.10;99.90;;;;;;5094674;28;20492;-66
2021/05/23 08:39:47;;;;;;;1.00;0.90;;;11.60;99.90;;;;;;5094721;28;20931;-66
2021/05/23 08:42:13;;;;;;;2.13;0.90;;;11.90;99.90;;;;;;5094513;28;20472;-66
2021/05/23 08:44:41;;;;;;;2.00;0.80;;;12.10;1.00;;;;;;5095012;28;20445;-67
2021/05/23 08:47:08;;;;;;;3.57;0.90;;;;;;;;;;5094560;28;20440;-67
2021/05/23 08:49:34;;;;;;;1.30;0.70;;;;;;;;;;5095016;28;20442;-68
2021/05/23 08:52:02;;;;;;;1.30;0.70;;;;;;;;;;5094085;28;20465;-67
2021/05/23 08:54:29;;;;;;;0.60;0.50;;;;;;;;;;5094572;28;20474;-67
2021/05/23 08:56:56;;;;;;;1.10;0.83;;;;;;;;;;5094670;28;20436;-68
2021/05/23 08:59:22;;;;;;;1.00;0.70;;;;;;;;;;5094156;28;20527;-69
2021/05/23 09:01:50;;;;;;;4.20;0.90;;;;;;;;;;5094705;28;20580;-69
2021/05/23 09:04:18;;;;;;;3.47;1.03;;;12.10;99.90;;;;;;5094053;28;20479;-70
2021/05/23 09:06:44;;;;;;;1.53;0.80;;;13.20;1.00;;;;;;5094591;28;20432;-70
2021/05/23 09:09:14;;;;;;;1.20;0.90;;;13.30;99.90;;;;;;5093955;28;20523;-70
2021/05/23 09:11:52;;;;;;;1.53;0.90;;;;;;;;;;5094560;28;20527;-70
2021/05/23 09:14:30;;;;;;;3.17;0.70;;;;;;;;;;5093654;28;20631;-70
2021/05/23 09:16:57;;;;;;;1.97;0.67;;;;;;;;;;5094613;28;20786;-70
2021/05/23 09:19:25;;;;;;;1.00;0.70;;;;;;;;;;5093817;28;20528;-71
2021/05/23 09:21:52;;;;;;;1.70;0.70;;;;;;;;;;5093888;28;21012;-70
2021/05/23 09:24:20;;;;;;;1.17;0.70;;;;;;;;;;5093761;28;20437;-71
2021/05/23 09:26:47;;;;;;;1.30;1.20;;;;;;;;;;5094215;28;20905;-71
2021/05/23 09:29:16;;;;;;;1.23;0.63;;;;;;;;;;5093228;28;20447;-71
2021/05/23 09:31:45;;;;;;;4.00;0.97;;;;;;;;;;5094140;28;20471;-71
2021/05/23 09:34:19;;;;;;;1.90;0.73;;;;;;;;;;5093460;28;20436;-71
2021/05/23 09:36:46;;;;;;;1.27;0.63;;;;;;;;;;5093882;28;20424;-71
2021/05/23 09:39:13;;;;;;;3.90;0.90;;;;;;;;;;5093590;28;20441;-71
2021/05/23 09:41:41;;;;;;;1.50;0.80;;;;;;;;;;5093620;28;20982;-70
2021/05/23 09:44:12;;;;;;;1.20;0.83;;;;;;;;;;5093299;28;20519;-69
2021/05/23 09:46:50;;;;;;;1.23;0.70;;;;;;;;;;5093106;28;21043;-69
2021/05/23 09:49:17;;;;;;;0.90;0.60;;;13.80;1.00;;;;;;5093337;28;20421;-69
2021/05/23 09:51:50;;;;;;;0.80;0.57;;;11.60;1.00;;;;;;5093595;28;20542;-69
2021/05/23 09:54:17;;;;;;;1.07;0.90;;;11.40;39.20;;;;;;5092835;28;20584;-69
2021/05/23 09:56:44;;;;;;;1.13;0.60;;;11.30;93.80;;;;;;5093402;28;20532;-69
2021/05/23 09:59:18;;;;;;;1.30;1.10;;;11.30;1.00;;;;;;5093023;28;20508;-69
2021/05/23 10:01:45;;;;;;;1.70;0.70;;;11.60;14.70;;;;;;5093347;28;20558;-71
2021/05/23 10:04:21;;;;;;;1.90;1.70;;;11.90;1.00;;;;;;5093054;28;20527;-70
2021/05/23 10:06:58;;;;;;;3.63;0.93;;;12.20;1.00;;;;;;5093456;28;20424;-70
2021/05/23 10:09:26;;;;;;;2.00;1.00;;;12.40;99.90;;;;;;5092758;28;20425;-71
2021/05/23 10:11:53;;;;;;;2.33;0.87;;;12.50;1.00;;;;;;5093025;28;20532;-70
2021/05/23 10:14:20;;;;;;;1.53;0.73;;;12.80;97.60;;;;;;5092955;28;20484;-70
2021/05/23 10:16:50;;;;;;;1.63;0.70;;;13.00;1.00;;;;;;5092999;28;20939;-70
2021/05/23 10:19:18;;;;;;;1.53;0.60;;;13.20;1.00;;;;;;5092798;28;20461;-71
2021/05/23 10:21:47;;;;;;;1.67;0.80;;;;;;;;;;5093226;28;20563;-71
2021/05/23 10:24:15;;;;;;;2.43;0.80;;;;;;;;;;5092545;28;20461;-71
2021/05/23 10:26:42;;;;;;;1.00;0.80;;;;;;;;;;5094318;28;20523;-71
2021/05/23 10:29:10;;;;;;;2.17;0.60;;;;;;;;;;5094323;28;20999;-72
2021/05/23 10:31:37;;;;;;;1.33;0.67;;;;;;;;;;5093262;28;20443;-71
2021/05/23 10:34:04;;;;;;;0.90;0.73;;;;;;;;;;5092936;28;20545;-71
2021/05/23 10:36:33;;;;;;;1.23;0.63;;;;;;;;;;5093338;28;20595;-71
2021/05/23 10:39:00;;;;;;;0.87;0.53;;;;;;;;;;5093044;28;20793;-72
2021/05/23 10:41:27;;;;;;;1.83;0.50;;;;;;;;;;5091870;28;20992;-72
2021/05/23 10:43:57;;;;;;;1.77;0.57;;;;;;;;;;5092483;28;20531;-72
2021/05/23 10:46:25;;;;;;;1.77;0.73;;;;;;;;;;5092025;28;20944;-72
2021/05/23 10:48:53;;;;;;;1.47;0.70;;;;;;;;;;5092276;28;20428;-72
2021/05/23 10:51:20;;;;;;;0.90;0.77;;;;;;;;;;5091794;28;20475;-72
2021/05/23 10:53:47;;;;;;;1.17;0.80;;;;;;;;;;5092199;28;20902;-72
2021/05/23 10:56:24;;;;;;;2.20;0.67;;;;;;;;;;5091253;28;20562;-73
2021/05/23 10:58:51;;;;;;;0.70;0.60;;;;;;;;;;5092437;28;20428;-72
2021/05/23 11:01:19;;;;;;;0.80;0.60;;;;;;;;;;5091800;28;20759;-72
2021/05/23 11:03:46;;;;;;;1.27;0.70;;;;;;;;;;5092276;28;20550;-73
2021/05/23 11:06:21;;;;;;;0.80;0.60;;;;;;;;;;5091753;28;20444;-72
2021/05/23 11:08:48;;;;;;;3.03;0.90;;;;;;;;;;5092433;28;20780;-73
2021/05/23 11:11:20;;;;;;;2.80;0.60;;;;;;;;;;5091700;28;20468;-73
2021/05/23 11:13:47;;;;;;;1.57;0.70;;;;;;;;;;5092283;28;20433;-72
2021/05/23 11:16:15;;;;;;;2.00;0.90;;;;;;;;;;5091251;28;20532;-72
2021/05/23 11:18:42;;;;;;;1.33;0.60;;;;;;;;;;5092172;28;20443;-72
2021/05/23 11:21:12;;;;;;;1.83;0.60;;;;;;;;;;5091389;28;20512;-72
2021/05/23 11:23:44;;;;;;;2.40;0.80;;;;;;;;;;5092119;28;20531;-72
2021/05/23 11:26:12;;;;;;;0.90;0.63;;;;;;;;;;5091176;28;21131;-73
2021/05/23 11:28:39;;;;;;;1.20;0.80;;;;;;;;;;5091465;28;20524;-73
2021/05/23 11:31:06;;;;;;;1.67;0.77;;;;;;;;;;5091517;28;20527;-72
2021/05/23 11:33:32;;;;;;;2.07;0.60;;;;;;;;;;5091456;28;20454;-73
2021/05/23 11:35:59;;;;;;;0.60;0.60;;;;;;;;;;5092002;28;20460;-72
2021/05/23 11:38:35;;;;;;;2.10;0.63;;;;;;;;;;5090972;28;20433;-72
2021/05/23 11:41:01;;;;;;;2.93;0.83;;;;;;;;;;5091876;28;20436;-72
2021/05/23 11:43:28;;;;;;;0.60;0.50;;;;;;;;;;5091164;28;20843;-73
2021/05/23 11:45:56;;;;;;;1.17;0.60;;;;;;;;;;5091554;28;20493;-73
2021/05/23 11:48:37;;;;;;;0.80;0.60;;;;;;;;;;5090897;28;20511;-73
2021/05/23 11:51:04;;;;;;;2.80;0.50;;;;;;;;;;5091558;28;20429;-72
2021/05/23 11:53:42;;;;;;;0.97;0.50;;;;;;;;;;5090987;28;20555;-73
2021/05/23 11:56:10;;;;;;;0.70;0.50;;;;;;;;;;5091770;28;20435;-71
2021/05/23 11:58:36;;;;;;;2.40;0.70;;;;;;;;;;5091680;28;20523;-73
2021/05/23 12:01:17;;;;;;;0.60;0.50;;;;;;;;;;5091608;28;20524;-73
2021/05/23 12:03:54;;;;;;;1.27;0.60;;;;;;;;;;5091657;28;20577;-73
2021/05/23 12:06:21;;;;;;;0.70;0.50;;;;;;;;;;5090671;28;20424;-73
2021/05/23 12:08:48;;;;;;;1.50;0.67;;;;;;;;;;5095490;28;20817;-74
2021/05/23 12:11:15;;;;;;;2.40;1.20;;;;;;;;;;5097433;28;21366;-73
2021/05/23 12:13:43;;;;;;;4.70;0.80;;;;;;;;;;5097979;28;20440;-72
2021/05/23 12:16:11;;;;;;;0.93;0.87;;;13.40;99.90;;;;;;5098423;28;20833;-73
2021/05/23 12:18:39;;;;;;;0.80;0.70;;;17.50;99.90;;;;;;5098260;28;20501;-74
2021/05/23 12:21:07;;;;;;;1.07;0.70;;;17.60;99.90;;;;;;5098241;28;20468;-74
2021/05/23 12:23:34;;;;;;;2.90;1.10;;;17.50;99.90;;;;;;5097662;28;20492;-74
2021/05/23 12:26:07;;;;;;;2.73;0.70;;;17.40;99.90;;;;;;5098234;28;20904;-74
2021/05/23 12:28:44;;;;;;;1.00;0.80;;;17.20;99.90;;;;;;5097913;28;20432;-74
2021/05/23 12:31:12;;;;;;;1.33;0.60;;;16.90;99.90;;;;;;5098326;28;20429;-74
2021/05/23 12:33:39;;;;;;;1.17;0.60;;;17.20;99.90;;;;;;5098004;28;20585;-74
2021/05/23 12:36:12;;;;;;;2.90;0.70;;;17.30;99.90;;;;;;5097958;28;20436;-74
2021/05/23 12:38:38;;;;;;;0.70;0.70;;;17.30;99.90;;;;;;5098141;28;20428;-74
2021/05/23 12:41:11;;;;;;;0.97;0.83;;;17.10;99.90;;;;;;5098110;28;20447;-74
2021/05/23 12:43:40;;;;;;;1.83;1.13;;;16.80;99.90;;;;;;5097990;28;20574;-74
2021/05/23 12:46:08;;;;;;;3.70;1.43;;;16.70;99.90;;;;;;5098078;28;20455;-72
2021/05/23 12:48:36;;;;;;;2.23;0.83;;;16.90;99.90;;;;;;5097108;28;20487;-74
2021/05/23 12:51:08;;;;;;;1.27;0.90;;;17.10;99.90;;;;;;5098123;28;20472;-73
2021/05/23 12:53:36;;;;;;;1.20;0.63;;;;;;;;;;5097642;28;20563;-73
2021/05/23 12:56:09;;;;;;;1.87;0.70;;;;;;;;;;5097840;28;20519;-73
2021/05/23 12:58:43;;;;;;;1.73;1.27;;;;;;;;;;5097179;28;20786;-74
2021/05/23 13:01:13;;;;;;;1.00;0.50;;;;;;;;;;5097884;28;20463;-74
2021/05/23 13:03:40;;;;;;;1.37;0.60;;;;;;;;;;5097879;28;20490;-74
2021/05/23 13:06:06;;;;;;;2.27;0.60;;;;;;;;;;5097924;28;20804;-74
2021/05/23 13:08:34;;;;;;;1.00;0.70;;;;;;;;;;5097145;28;20472;-74
2021/05/23 13:11:01;;;;;;;1.00;0.90;;;;;;;;;;5097708;28;20486;-73
2021/05/23 13:13:29;;;;;;;0.80;0.60;;;;;;;;;;5097004;28;20857;-74
2021/05/23 13:16:03;;;;;;;1.67;0.60;;;;;;;;;;5097527;28;20574;-75
2021/05/23 13:18:30;;;;;;;3.33;0.80;;;;;;;;;;5097048;28;20432;-74
2021/05/23 13:20:57;;;;;;;1.77;0.70;;;;;;;;;;5093983;28;20526;-75
2021/05/23 13:23:23;;;;;;;2.40;0.73;;;;;;;;;;5093818;28;20530;-75
2021/05/23 13:25:50;;;;;;;0.97;0.60;;;;;;;;;;5094001;28;20476;-74
2021/05/23 13:28:17;;;;;;;1.40;0.60;;;;;;;;;;5093616;28;20876;-74
2021/05/23 13:30:44;;;;;;;1.50;0.60;;;;;;;;;;5094288;28;20452;-74
2021/05/23 13:33:11;;;;;;;0.90;0.63;;;;;;;;;;5094051;28;20535;-74
2021/05/23 13:35:37;;;;;;;1.40;0.70;;;;;;;;;;5093553;28;20527;-73
2021/05/23 13:38:05;;;;;;;1.17;0.63;;;;;;;;;;5093642;28;20453;-74
2021/05/23 13:40:32;;;;;;;0.60;0.57;;;;;;;;;;5093396;28;20483;-74
2021/05/23 13:42:58;;;;;;;2.37;1.07;;;;;;;;;;5093804;28;20478;-73
2021/05/23 13:45:25;;;;;;;1.87;0.80;;;;;;;;;;5093022;28;20564;-74
2021/05/23 13:47:53;;;;;;;1.27;0.70;;;;;;;;;;5093819;28;20448;-73
2021/05/23 13:50:19;;;;;;;1.53;0.83;;;;;;;;;;5093613;28;20444;-74
2021/05/23 13:52:48;;;;;;;3.00;0.97;;;;;;;;;;5093031;28;20463;-74
2021/05/23 13:55:15;;;;;;;1.23;0.70;;;;;;;;;;5093518;28;20436;-74
2021/05/23 13:57:42;;;;;;;0.83;0.73;;;;;;;;;;5093503;28;20528;-75
2021/05/23 14:00:09;;;;;;;2.37;0.80;;;;;;;;;;5093729;28;20548;-74
2021/05/23 14:02:36;;;;;;;0.90;0.70;;;;;;;;;;5093133;28;20483;-74